Time;durP1;ratioP1;P1;durP2;ratioP2;P2;SDS_P1;SDS_P2;PMS_P1;PMS_P2;Temp;Humidity;BMP_temperature;BMP_pressure;BME280_temperature;BME280_humidity;BME280_pressure;Samples;Min_cycle;Max_cycle;Signal;HPM_P1;HPM_P2
2023/08/26 00:00:53;;;;;;;9.13;8.33;;;;;;;20.08;93.58;97477.22;5029180;28;20452;-74
2023/08/26 00:03:20;;;;;;;10.20;9.40;;;;;;;19.93;94.90;97489.06;5041097;28;20471;-74
2023/08/26 00:05:48;;;;;;;10.80;10.00;;;;;;;20.00;95.34;97481.34;5029735;28;20470;-75
2023/08/26 00:08:15;;;;;;;11.77;10.97;;;;;;;19.85;95.70;97431.91;5036630;28;20566;-75
2023/08/26 00:10:43;;;;;;;11.20;10.40;;;;;;;20.28;94.93;97471.69;5029762;28;21041;-74
2023/08/26 00:13:11;;;;;;;13.23;12.10;;;;;;;20.16;95.67;97467.56;5031160;28;20452;-75
2023/08/26 00:15:38;;;;;;;12.53;11.43;;;;;;;20.26;95.70;97473.06;5030479;28;20466;-74
2023/08/26 00:18:08;;;;;;;11.67;10.87;;;;;;;20.22;95.17;97480.22;5036719;28;20480;-74
2023/08/26 00:20:35;;;;;;;11.23;10.23;;;;;;;20.21;95.35;97476.63;5032182;28;20460;-74
2023/08/26 00:23:02;;;;;;;11.73;10.83;;;;;;;20.06;95.58;97480.25;5033874;28;20496;-74
2023/08/26 00:25:29;;;;;;;11.60;10.70;;;;;;;20.02;95.82;97470.09;5029379;28;20588;-74
2023/08/26 00:27:57;;;;;;;11.43;10.63;;;;;;;19.97;96.16;97459.09;5034926;28;20480;-74
2023/08/26 00:30:25;;;;;;;11.20;10.40;;;;;;;20.19;96.13;97464.28;5041274;28;20476;-74
2023/08/26 00:32:52;;;;;;;12.80;11.70;;;;;;;20.23;96.00;97468.13;5037157;28;20542;-74
2023/08/26 00:35:19;;;;;;;11.23;10.43;;;;;;;20.40;94.97;97474.19;5037552;28;20495;-74
2023/08/26 00:37:46;;;;;;;11.90;11.00;;;;;;;20.27;95.78;97470.03;5044958;28;20504;-75
2023/08/26 00:40:13;;;;;;;11.10;10.40;;;;;;;20.33;95.41;97485.41;5032810;28;20926;-75
2023/08/26 00:42:39;;;;;;;10.03;9.27;;;;;;;20.11;95.72;97488.50;5041065;28;20527;-75
2023/08/26 00:45:08;;;;;;;10.50;9.60;;;;;;;20.07;94.94;97487.41;5051555;28;20454;-75
2023/08/26 00:47:36;;;;;;;8.97;8.03;;;;;;;19.98;95.61;97478.06;5040485;28;20484;-76
2023/08/26 00:50:04;;;;;;;8.83;8.17;;;;;;;19.87;94.88;97470.91;5032623;28;20466;-75
2023/08/26 00:52:31;;;;;;;8.50;7.90;;;;;;;19.86;95.14;97463.78;5037607;28;20441;-76
2023/08/26 00:54:58;;;;;;;8.57;7.93;;;;;;;19.88;95.14;97467.06;5035357;28;20547;-74
2023/08/26 00:57:24;;;;;;;8.83;8.17;;;;;;;19.91;94.70;97476.69;5035506;28;21348;-76
2023/08/26 00:59:51;;;;;;;9.73;8.70;;;;;;;19.79;94.96;97482.47;5032378;28;20554;-75
2023/08/26 01:02:19;;;;;;;9.00;8.30;;;;;;;19.67;95.45;97493.72;5039496;28;20488;-75
2023/08/26 01:04:46;;;;;;;9.63;8.83;;;;;;;19.64;96.03;97490.69;5030545;28;20455;-75
2023/08/26 01:07:13;;;;;;;9.03;8.43;;;;;;;19.61;96.06;97488.50;5031599;28;20488;-75
2023/08/26 01:09:40;;;;;;;9.00;8.20;;;;;;;19.51;95.62;97493.97;5043932;28;20452;-79
2023/08/26 01:12:12;;;;;;;8.80;8.10;;;;;;;19.30;97.14;97515.88;5032345;28;20536;-78
2023/08/26 01:14:45;;;;;;;9.80;8.90;;;;;;;19.19;97.42;97497.72;5033126;28;20919;-75
2023/08/26 01:17:13;;;;;;;10.13;9.40;;;;;;;19.10;98.38;97504.88;5051083;28;20979;-75
2023/08/26 01:19:41;;;;;;;10.03;9.23;;;;;;;19.08;98.33;97496.91;5030958;28;20460;-77
2023/08/26 01:22:09;;;;;;;11.40;10.40;;;;;;;19.13;98.47;97483.19;5030381;28;20506;-75
2023/08/26 01:24:39;;;;;;;11.90;10.87;;;;;;;19.08;98.59;97485.94;5045631;28;20950;-75
2023/08/26 01:27:06;;;;;;;11.17;10.27;;;;;;;19.09;98.21;97514.19;5031715;28;20531;-75
2023/08/26 01:29:33;;;;;;;10.90;9.73;;;;;;;19.06;98.48;97515.53;5032631;28;20468;-74
2023/08/26 01:32:07;;;;;;;11.00;9.90;;;;;;;19.17;98.32;97508.16;5034648;28;20992;-75
2023/08/26 01:34:37;;;;;;;12.77;11.77;;;;;;;19.09;98.61;97517.75;5035245;28;20467;-74
2023/08/26 01:37:03;;;;;;;13.63;12.47;;;;;;;19.09;99.18;97541.63;5048018;28;21036;-74
2023/08/26 01:39:31;;;;;;;13.30;12.23;;;;;;;19.08;99.63;97556.44;5030887;28;20457;-74
2023/08/26 01:42:00;;;;;;;13.10;12.07;;;;;;;19.04;99.55;97555.31;5032744;28;20864;-75
2023/08/26 01:44:27;;;;;;;12.03;11.07;;;;;;;19.08;100.00;97535.31;5031890;28;20548;-76
2023/08/26 01:46:55;;;;;;;12.00;10.83;;;;;;;19.05;100.00;97540.50;5034906;28;20515;-75
2023/08/26 01:49:23;;;;;;;13.30;12.10;;;;;;;19.12;100.00;97533.69;5031224;28;20558;-76
2023/08/26 01:51:50;;;;;;;13.17;11.80;;;;;;;19.06;99.70;97518.28;5031651;28;20521;-74
2023/08/26 01:54:16;;;;;;;12.30;11.20;;;;;;;19.12;99.78;97513.66;5030956;28;20559;-74
2023/08/26 01:56:43;;;;;;;11.30;10.40;;;;;;;19.13;99.45;97512.56;5031185;28;20547;-74
2023/08/26 01:59:11;;;;;;;14.13;13.03;;;;;;;18.97;99.22;97519.06;5030191;28;20483;-73
2023/08/26 02:01:39;;;;;;;14.50;13.30;;;;;;;19.06;99.75;97531.19;5032131;28;20483;-74
2023/08/26 02:04:06;;;;;;;13.23;12.13;;;;;;;19.19;99.38;97527.91;5031405;28;20562;-74
2023/08/26 02:06:33;;;;;;;11.40;10.50;;;;;;;19.26;98.50;97520.25;5038437;28;20484;-74
2023/08/26 02:09:00;;;;;;;12.20;11.30;;;;;;;19.31;98.25;97522.19;5032400;28;20452;-74
2023/08/26 02:11:27;;;;;;;12.93;11.93;;;;;;;19.21;98.76;97528.47;5031163;28;20459;-73
2023/08/26 02:13:54;;;;;;;13.07;11.90;;;;;;;19.22;98.53;97540.28;5034937;28;20960;-73
2023/08/26 02:16:22;;;;;;;12.53;11.40;;;;;;;19.24;98.55;97541.66;5036555;28;20539;-72
2023/08/26 02:18:49;;;;;;;11.30;10.40;;;;;;;19.23;98.23;97542.75;5039963;28;20491;-74
2023/08/26 02:21:16;;;;;;;12.40;11.30;;;;;;;19.26;97.74;97536.72;5036752;28;20545;-75
2023/08/26 02:23:43;;;;;;;12.60;11.60;;;;;;;19.34;97.90;97549.09;5037595;28;20478;-75
2023/08/26 02:26:10;;;;;;;12.27;11.27;;;;;;;19.32;97.66;97552.09;5040806;28;20493;-72
2023/08/26 02:28:36;;;;;;;10.57;9.77;;;;;;;19.38;97.56;97540.06;5039611;28;21068;-72
2023/08/26 02:31:03;;;;;;;11.50;10.60;;;;;;;19.45;97.19;97537.88;5040530;28;20457;-72
2023/08/26 02:33:32;;;;;;;11.30;10.33;;;;;;;19.38;97.25;97531.81;5031330;28;20464;-72
2023/08/26 02:35:59;;;;;;;13.10;11.90;;;;;;;19.29;97.53;97544.41;5045639;28;20494;-72
2023/08/26 02:38:25;;;;;;;13.00;11.83;;;;;;;19.23;98.09;97552.88;5033376;28;20505;-72
2023/08/26 02:40:53;;;;;;;12.93;11.73;;;;;;;19.09;98.40;97552.59;5038269;28;20562;-72
2023/08/26 02:43:20;;;;;;;14.73;13.50;;;;;;;19.02;98.74;97546.53;5037370;28;20735;-72
2023/08/26 02:45:47;;;;;;;14.33;13.13;;;;;;;19.05;98.40;97548.72;5028375;28;20460;-73
2023/08/26 02:48:14;;;;;;;10.47;9.60;;;;;;;18.99;98.69;97541.56;5040252;28;20514;-72
2023/08/26 02:50:42;;;;;;;12.60;11.60;;;;;;;19.04;98.80;97545.16;5035790;28;20447;-73
2023/08/26 02:53:08;;;;;;;10.27;9.53;;;;;;;19.10;98.31;97555.06;5029533;28;20456;-72
2023/08/26 02:55:35;;;;;;;10.20;9.40;;;;;;;18.92;98.75;97549.22;5029912;28;20491;-72
2023/08/26 02:58:02;;;;;;;10.53;9.67;;;;;;;18.85;99.45;97552.19;5031516;28;20464;-70
2023/08/26 03:00:29;;;;;;;9.43;8.73;;;;;;;18.90;98.89;97545.91;5031545;28;20475;-72
2023/08/26 03:02:56;;;;;;;12.30;11.20;;;;;;;18.98;98.36;97559.13;5031729;28;20501;-72
2023/08/26 03:05:22;;;;;;;10.10;9.30;;;;;;;19.01;97.94;97547.63;5037914;28;20954;-72
2023/08/26 03:07:50;;;;;;;9.90;9.10;;;;;;;18.97;98.09;97551.97;5037287;28;21543;-72
2023/08/26 03:10:17;;;;;;;9.73;8.93;;;;;;;19.09;97.95;97555.34;5029744;28;20551;-72
2023/08/26 03:12:44;;;;;;;10.63;9.53;;;;;;;19.21;97.21;97555.91;5035167;28;21156;-72
2023/08/26 03:15:11;;;;;;;9.10;8.30;;;;;;;18.98;97.82;97556.38;5034473;28;20488;-72
2023/08/26 03:17:38;;;;;;;7.77;7.20;;;;;;;19.05;98.10;97567.94;5030609;28;20483;-73
2023/08/26 03:20:06;;;;;;;10.70;9.90;;;;;;;19.01;97.74;97570.38;5031610;28;20452;-72
2023/08/26 03:22:32;;;;;;;10.73;9.93;;;;;;;18.97;98.13;97562.94;5030258;28;20466;-73
2023/08/26 03:25:01;;;;;;;9.33;8.63;;;;;;;19.05;98.02;97571.50;5034929;28;20502;-72
2023/08/26 03:27:29;;;;;;;11.20;10.20;;;;;;;19.10;97.63;97592.66;5032204;28;20503;-72
2023/08/26 03:29:55;;;;;;;9.73;8.93;;;;;;;18.95;98.29;97576.09;5031124;28;20456;-72
2023/08/26 03:32:22;;;;;;;10.00;9.10;;;;;;;19.00;97.93;97570.66;5036030;28;20487;-73
2023/08/26 03:34:49;;;;;;;8.43;7.77;;;;;;;19.13;97.03;97564.69;5031533;28;20496;-72
2023/08/26 03:37:16;;;;;;;8.73;8.13;;;;;;;19.20;96.95;97565.22;5035640;28;20553;-72
2023/08/26 03:39:43;;;;;;;8.93;8.23;;;;;;;19.11;96.72;97561.38;5040103;28;20889;-72
2023/08/26 03:42:11;;;;;;;10.20;9.40;;;;;;;19.21;96.27;97561.41;5033439;28;20448;-72
2023/08/26 03:44:38;;;;;;;10.10;9.30;;;;;;;19.21;95.65;97566.88;5037431;28;20838;-72
2023/08/26 03:47:05;;;;;;;8.70;8.00;;;;;;;19.27;95.40;97560.31;5029838;28;20884;-74
2023/08/26 03:49:32;;;;;;;9.70;8.90;;;;;;;19.08;96.07;97561.91;5032094;28;20785;-73
2023/08/26 03:51:58;;;;;;;9.00;8.40;;;;;;;19.20;96.09;97573.47;5029011;28;20466;-73
2023/08/26 03:54:25;;;;;;;8.80;8.00;;;;;;;19.09;95.95;97564.38;5036519;28;20555;-73
2023/08/26 03:56:52;;;;;;;9.70;8.90;;;;;;;18.79;95.90;97532.19;5036302;28;20562;-73
2023/08/26 03:59:20;;;;;;;8.63;7.97;;;;;;;19.00;96.03;97570.66;5028402;28;21038;-73
2023/08/26 04:01:47;;;;;;;9.63;8.77;;;;;;;18.93;96.03;97570.06;5028078;28;20461;-73
2023/08/26 04:04:15;;;;;;;11.23;8.20;;;;;;;19.00;95.04;97576.97;5032242;28;20975;-72
2023/08/26 04:06:42;;;;;;;8.47;7.67;;;;;;;18.94;94.92;97577.19;5033410;28;20476;-73
2023/08/26 04:09:09;;;;;;;9.13;8.33;;;;;;;18.85;95.32;97593.31;5039759;28;20539;-72
2023/08/26 04:11:35;;;;;;;8.60;7.90;;;;;;;18.87;94.86;97598.53;5037351;28;20513;-73
2023/08/26 04:14:02;;;;;;;8.90;8.20;;;;;;;18.69;95.09;97599.84;5034957;28;20558;-73
2023/08/26 04:16:30;;;;;;;8.43;7.63;;;;;;;18.86;94.54;97599.63;5037001;28;20482;-72
2023/08/26 04:18:57;;;;;;;8.30;7.63;;;;;;;18.79;93.98;97602.63;5032045;28;20460;-73
2023/08/26 04:21:24;;;;;;;8.37;7.50;;;;;;;18.75;93.83;97607.81;5030448;28;20488;-72
2023/08/26 04:23:51;;;;;;;7.83;7.30;;;;;;;18.73;93.85;97618.22;5041678;28;20456;-72
2023/08/26 04:26:18;;;;;;;9.27;8.47;;;;;;;18.89;93.21;97618.31;5031928;28;20968;-73
2023/08/26 04:28:44;;;;;;;8.10;7.40;;;;;;;18.90;93.15;97604.31;5032927;28;20517;-73
2023/08/26 04:31:11;;;;;;;7.77;7.07;;;;;;;18.88;94.03;97602.94;5042770;28;20463;-73
2023/08/26 04:33:40;;;;;;;8.63;7.93;;;;;;;18.73;92.99;97615.50;5032572;28;20913;-73
2023/08/26 04:36:07;;;;;;;8.73;7.50;;;;;;;18.85;92.37;97612.53;5034060;28;20498;-72
2023/08/26 04:38:34;;;;;;;8.60;7.90;;;;;;;18.81;92.91;97613.34;5032900;28;20559;-72
2023/08/26 04:41:01;;;;;;;8.17;7.37;;;;;;;18.81;92.47;97621.56;5031824;28;20448;-73
2023/08/26 04:43:28;;;;;;;7.27;6.67;;;;;;;18.77;91.79;97630.31;5030986;28;20537;-72
2023/08/26 04:45:55;;;;;;;8.23;7.30;;;;;;;18.77;91.15;97633.06;5032146;28;20463;-72
2023/08/26 04:48:22;;;;;;;8.87;8.20;;;;;;;18.86;91.17;97638.03;5032017;28;20471;-72
2023/08/26 04:50:50;;;;;;;9.90;9.00;;;;;;;18.74;91.61;97646.47;5038313;28;20456;-72
2023/08/26 04:53:17;;;;;;;9.67;8.87;;;;;;;18.60;90.76;97643.34;5033122;28;20554;-73
2023/08/26 04:55:43;;;;;;;9.20;8.20;;;;;;;18.63;91.54;97648.31;5034401;28;20492;-71
2023/08/26 04:58:10;;;;;;;8.93;8.23;;;;;;;18.79;90.23;97662.97;5034854;28;20476;-70
2023/08/26 05:00:41;;;;;;;8.30;7.60;;;;;;;18.76;90.58;97653.34;5033795;28;20464;-69
2023/08/26 05:03:08;;;;;;;8.63;7.43;;;;;;;19.00;89.10;97650.19;5033802;28;20462;-70
2023/08/26 05:05:35;;;;;;;7.50;6.87;;;;;;;18.73;89.33;97653.88;5033107;28;20462;-70
2023/08/26 05:08:04;;;;;;;7.30;6.57;;;;;;;18.83;89.16;97668.75;5032542;28;20474;-69
2023/08/26 05:10:31;;;;;;;7.83;6.40;;;;;;;18.79;88.17;97666.53;5032082;28;20463;-71
2023/08/26 05:12:58;;;;;;;7.40;6.70;;;;;;;18.77;88.66;97657.75;5035118;28;20490;-72
2023/08/26 05:15:26;;;;;;;7.13;6.53;;;;;;;18.80;88.27;97661.88;5034682;28;20579;-73
2023/08/26 05:17:53;;;;;;;8.17;7.37;;;;;;;18.78;89.11;97669.53;5036228;28;20501;-75
2023/08/26 05:20:20;;;;;;;7.97;7.27;;;;;;;18.74;88.50;97668.41;5034224;28;20462;-73
2023/08/26 05:22:47;;;;;;;7.57;6.87;;;;;;;18.76;87.73;97663.50;5033396;28;20460;-73
2023/08/26 05:25:15;;;;;;;7.47;6.80;;;;;;;18.72;87.99;97662.38;5032160;28;20825;-73
2023/08/26 05:27:41;;;;;;;8.37;7.70;;;;;;;18.78;87.71;97675.84;5033930;28;20562;-74
2023/08/26 05:30:09;;;;;;;7.60;7.00;;;;;;;18.76;87.76;97671.72;5035485;28;20494;-73
2023/08/26 05:32:36;;;;;;;7.90;7.30;;;;;;;18.62;87.56;97673.25;5034728;28;20455;-73
2023/08/26 05:35:03;;;;;;;7.83;7.13;;;;;;;18.61;87.99;97675.16;5031852;28;20585;-70
2023/08/26 05:37:30;;;;;;;8.27;7.50;;;;;;;18.32;88.08;97644.47;5036404;28;20486;-71
2023/08/26 05:39:56;;;;;;;8.90;7.70;;;;;;;18.75;87.92;97661.84;5028836;28;20958;-70
2023/08/26 05:42:24;;;;;;;8.30;7.50;;;;;;;18.73;88.19;97664.84;5031604;28;20536;-70
2023/08/26 05:44:51;;;;;;;8.17;7.47;;;;;;;18.75;88.02;97667.31;5039044;28;20494;-69
2023/08/26 05:47:18;;;;;;;6.90;6.17;;;;;;;18.94;87.33;97651.25;5030996;28;20480;-69
2023/08/26 05:49:45;;;;;;;9.37;7.43;;;;;;;19.18;87.23;97655.22;5034294;28;20535;-71
2023/08/26 05:52:12;;;;;;;9.67;7.10;;;;;;;19.22;87.50;97656.34;5041407;28;20544;-71
2023/08/26 05:54:38;;;;;;;6.10;5.70;;;;;;;19.13;86.31;97668.94;5032299;28;20468;-70
2023/08/26 05:57:05;;;;;;;7.90;7.20;;;;;;;19.20;86.44;97665.94;5031649;28;20503;-69
2023/08/26 05:59:33;;;;;;;7.50;6.87;;;;;;;19.19;85.95;97662.34;5031659;28;20795;-71
2023/08/26 06:02:00;;;;;;;7.40;6.70;;;;;;;19.24;85.63;97669.78;5028685;28;20484;-70
2023/08/26 06:04:27;;;;;;;7.23;6.63;;;;;;;19.27;85.55;97680.25;5040073;28;20471;-70
2023/08/26 06:06:54;;;;;;;7.27;6.57;;;;;;;19.18;86.06;97688.13;5032666;28;20475;-70
2023/08/26 06:09:22;;;;;;;6.47;5.50;;;;;;;19.46;85.58;97679.53;5028503;28;20472;-70
2023/08/26 06:11:49;;;;;;;6.60;6.10;;;;;;;19.37;85.38;97686.63;5033770;28;20459;-71
2023/08/26 06:14:16;;;;;;;8.37;6.30;;;;;;;19.52;84.87;97682.28;5037853;28;20471;-73
2023/08/26 06:16:44;;;;;;;6.63;6.07;;;;;;;19.68;83.55;97684.03;5030932;28;20497;-73
2023/08/26 06:19:10;;;;;;;5.43;4.93;;;;;;;20.11;82.37;97675.34;5030861;28;20456;-72
2023/08/26 06:21:37;;;;;;;5.83;5.30;;;;;;;20.12;81.89;97682.50;5030431;28;20490;-73
2023/08/26 06:24:05;;;;;;;5.93;5.30;;;;;;;20.11;81.48;97642.38;5030474;28;20455;-73
2023/08/26 06:26:31;;;;;;;7.30;5.50;;;;;;;20.37;81.41;97678.13;5048003;28;20508;-73
2023/08/26 06:28:58;;;;;;;5.90;5.30;;;;;;;20.73;80.33;97674.31;5038410;28;20498;-73
2023/08/26 06:31:25;;;;;;;7.03;6.10;;;;;;;21.21;78.08;97685.78;5027044;28;20549;-73
2023/08/26 06:33:53;;;;;;;5.50;5.00;;;;;;;21.62;75.86;97677.38;5043811;28;20451;-72
2023/08/26 06:36:20;;;;;;;6.30;5.73;;;;;;;21.67;74.08;97685.63;5029776;28;20563;-73
2023/08/26 06:38:47;;;;;;;8.10;4.90;;;;;;;21.25;75.83;97683.31;5031245;28;20468;-75
2023/08/26 06:41:13;;;;;;;5.30;4.90;;;;;;;20.89;77.09;97688.03;5029077;28;20463;-74
2023/08/26 06:43:40;;;;;;;6.27;4.83;;;;;;;20.94;78.32;97677.00;5034540;28;20474;-73
2023/08/26 06:46:07;;;;;;;5.23;4.73;;;;;;;20.88;77.48;97678.13;5027797;28;20474;-71
2023/08/26 06:48:34;;;;;;;6.60;5.17;;;;;;;20.70;77.46;97688.59;5041416;28;20545;-70
2023/08/26 06:51:02;;;;;;;5.30;4.90;;;;;;;20.84;77.18;97694.34;5031541;28;20550;-70
2023/08/26 06:53:29;;;;;;;5.93;4.97;;;;;;;20.72;77.42;97702.09;5036674;28;20512;-71
2023/08/26 06:55:55;;;;;;;5.00;4.60;;;;;;;20.84;77.66;97699.03;5030520;28;20510;-71
2023/08/26 06:58:23;;;;;;;6.00;4.70;;;;;;;20.98;75.70;97700.94;5030474;28;20545;-71
2023/08/26 07:00:50;;;;;;;5.10;4.60;;;;;;;20.88;76.88;97694.63;5031503;28;20455;-71
2023/08/26 07:03:17;;;;;;;5.93;5.30;;;;;;;21.30;76.42;97697.88;5029136;28;20471;-71
2023/08/26 07:05:45;;;;;;;5.50;5.00;;;;;;;21.75;74.89;97690.56;5042900;28;20498;-71
2023/08/26 07:08:13;;;;;;;4.67;4.27;;;;;;;21.54;74.51;97675.22;5037110;28;20559;-71
2023/08/26 07:10:40;;;;;;;5.60;4.70;;;;;;;21.88;73.13;97676.16;5029563;28;20553;-72
2023/08/26 07:13:07;;;;;;;5.33;4.87;;;;;;;21.82;72.52;97687.47;5029296;28;20468;-71
2023/08/26 07:15:34;;;;;;;4.57;4.17;;;;;;;21.87;73.25;97674.50;5039747;28;20458;-71
2023/08/26 07:18:01;;;;;;;4.27;3.87;;;;;;;21.94;72.23;97677.78;5032820;28;20569;-71
2023/08/26 07:20:28;;;;;;;5.67;5.20;;;;;;;22.60;69.37;97682.03;5046933;28;20493;-71
2023/08/26 07:22:55;;;;;;;5.70;4.27;;;;;;;23.23;67.26;97679.25;5030289;28;20977;-78
2023/08/26 07:25:23;;;;;;;4.33;3.93;;;;;;;23.42;65.31;97694.78;5033008;28;20461;-71
2023/08/26 07:27:50;;;;;;;6.03;4.37;;;;;;;23.15;66.62;97700.03;5027368;28;20484;-73
2023/08/26 07:30:17;;;;;;;4.73;4.33;;;;;;;22.59;69.25;97703.28;5043264;28;20511;-74
2023/08/26 07:32:43;;;;;;;4.80;4.40;;;;;;;22.50;70.24;97701.41;5031507;28;20525;-73
2023/08/26 07:35:11;;;;;;;4.43;4.00;;;;;;;22.29;71.37;97698.00;5028304;28;20547;-73
2023/08/26 07:37:37;;;;;;;9.90;4.20;;;;;;;22.39;71.64;97697.94;5031256;28;20507;-73
2023/08/26 07:40:06;;;;;;;5.00;4.50;;;;;;;22.43;69.17;97710.00;5046006;28;21102;-73
2023/08/26 07:42:35;;;;;;;5.53;4.93;;;;;;;21.68;69.84;97699.13;5034671;28;20456;-73
2023/08/26 07:45:02;;;;;;;5.57;4.50;;;;;;;21.69;72.86;97694.44;5032250;28;20451;-73
2023/08/26 07:47:29;;;;;;;4.80;4.40;;;;;;;21.82;71.58;97693.81;5036183;28;20479;-73
2023/08/26 07:49:56;;;;;;;6.77;5.10;;;;;;;21.79;72.30;97694.38;5033536;28;20464;-73
2023/08/26 07:52:23;;;;;;;5.40;5.00;;;;;;;21.90;72.09;97693.22;5032111;28;20484;-73
2023/08/26 07:54:49;;;;;;;5.20;4.70;;;;;;;22.32;72.02;97672.59;5046803;28;20468;-73
2023/08/26 07:57:16;;;;;;;7.47;5.00;;;;;;;22.91;68.25;97666.06;5047327;28;20517;-73
2023/08/26 07:59:45;;;;;;;6.03;5.13;;;;;;;23.27;68.23;97664.56;5052024;28;20500;-73
2023/08/26 08:02:12;;;;;;;4.67;4.37;;;;;;;23.54;66.67;97663.19;5039618;28;20459;-74
2023/08/26 08:04:39;;;;;;;5.33;4.80;;;;;;;23.34;66.39;97654.00;5029303;28;20460;-73
2023/08/26 08:07:06;;;;;;;5.10;4.60;;;;;;;23.31;65.83;97649.06;5031111;28;20483;-73
2023/08/26 08:09:33;;;;;;;5.73;5.10;;;;;;;22.83;67.17;97661.16;5046194;28;20856;-73
2023/08/26 08:12:00;;;;;;;4.67;4.27;;;;;;;22.72;67.49;97671.47;5031143;28;20868;-74
2023/08/26 08:14:26;;;;;;;5.20;4.80;;;;;;;22.54;67.68;97666.63;5031996;28;20460;-73
2023/08/26 08:16:54;;;;;;;5.33;4.80;;;;;;;22.20;67.81;97683.97;5036062;28;20576;-73
2023/08/26 08:19:21;;;;;;;4.70;4.30;;;;;;;22.07;69.99;97690.16;5039945;28;20929;-75
2023/08/26 08:21:48;;;;;;;5.67;5.17;;;;;;;22.12;70.27;97688.16;5030250;28;20649;-74
2023/08/26 08:24:15;;;;;;;5.20;4.70;;;;;;;22.16;70.49;97687.59;5032836;28;20550;-74
2023/08/26 08:26:43;;;;;;;6.03;5.17;;;;;;;22.00;71.74;97690.44;5038054;28;20487;-75
2023/08/26 08:29:10;;;;;;;5.50;5.00;;;;;;;22.09;70.82;97685.19;5040219;28;20467;-74
2023/08/26 08:31:37;;;;;;;5.17;4.40;;;;;;;22.35;70.55;97680.31;5038251;28;20459;-74
2023/08/26 08:34:06;;;;;;;5.20;4.73;;;;;;;22.58;68.53;97689.78;5030810;28;20464;-75
2023/08/26 08:36:33;;;;;;;5.03;4.53;;;;;;;22.78;67.76;97684.94;5031425;28;20573;-75
2023/08/26 08:39:00;;;;;;;6.20;4.57;;;;;;;22.92;68.21;97681.50;5032490;28;20540;-75
2023/08/26 08:41:27;;;;;;;4.23;3.93;;;;;;;23.03;68.31;97667.31;5032516;28;21116;-74
2023/08/26 08:44:00;;;;;;;5.60;4.43;;;;;;;23.32;65.26;97667.28;5032750;28;20456;-74
2023/08/26 08:46:27;;;;;;;5.00;4.50;;;;;;;23.32;64.14;97678.34;5038565;28;21161;-74
2023/08/26 08:48:54;;;;;;;6.20;4.43;;;;;;;23.56;64.14;97663.72;5041691;28;20511;-74
2023/08/26 08:51:25;;;;;;;5.43;4.60;;;;;;;23.72;63.04;97665.97;5049620;28;20450;-74
2023/08/26 08:53:53;;;;;;;4.60;4.20;;;;;;;24.11;60.58;97679.53;5033683;28;20466;-74
2023/08/26 08:56:19;;;;;;;5.87;4.10;;;;;;;24.47;60.15;97692.88;5031892;28;21066;-75
2023/08/26 08:58:47;;;;;;;4.30;3.90;;;;;;;24.42;58.18;97682.72;5030644;28;22809;-74
2023/08/26 09:01:14;;;;;;;4.67;3.97;;;;;;;24.02;59.27;97686.88;5038376;28;20501;-74
2023/08/26 09:03:41;;;;;;;5.27;4.10;;;;;;;23.67;60.25;97690.13;5034775;28;20475;-75
2023/08/26 09:06:08;;;;;;;4.07;3.77;;;;;;;23.54;61.73;97693.56;5036949;28;21038;-75
2023/08/26 09:08:37;;;;;;;5.23;3.80;;;;;;;24.02;60.04;97689.66;5034908;28;20471;-74
2023/08/26 09:11:04;;;;;;;9.13;4.70;;;;;;;24.66;58.06;97690.94;5036724;28;20459;-75
2023/08/26 09:13:30;;;;;;;4.20;3.80;;;;;;;25.14;55.91;97684.28;5033099;28;20451;-77
2023/08/26 09:15:58;;;;;;;4.17;3.77;;;;;;;24.57;56.35;97689.97;5027099;28;20483;-76
2023/08/26 09:18:24;;;;;;;5.63;4.13;;;;;;;23.92;58.51;97675.13;5035601;28;20548;-77
2023/08/26 09:20:51;;;;;;;4.30;3.50;;;;;;;23.60;60.55;97673.88;5041276;28;20465;-76
2023/08/26 09:23:18;;;;;;;5.20;4.70;;;;;;;23.57;59.78;97673.66;5031187;28;20466;-72
2023/08/26 09:25:53;;;;;;;5.53;4.33;;;;;;;23.12;60.24;97673.00;5033028;28;20572;-72
2023/08/26 09:28:21;;;;;;;4.13;3.80;;;;;;;23.18;61.87;97669.09;5037611;28;20463;-72
2023/08/26 09:31:02;;;;;;;3.87;3.57;;;;;;;23.13;61.26;97674.66;5031656;28;20532;-72
2023/08/26 09:33:29;;;;;;;4.87;4.00;;;;;;;22.92;62.07;97673.22;5031312;28;20911;-84
2023/08/26 09:35:58;;;;;;;3.80;3.50;;;;;;;22.78;62.85;97681.34;5036760;28;20485;-74
2023/08/26 09:38:25;;;;;;;3.87;3.33;;;;;;;22.67;61.84;97683.38;5029193;28;20594;-72
2023/08/26 09:40:57;;;;;;;5.00;4.50;;;;;;;22.50;63.93;97680.19;5033030;28;20460;-72
2023/08/26 09:43:24;;;;;;;4.43;4.03;;;;;;;21.94;64.17;97688.81;5038904;28;20455;-72
2023/08/26 09:45:55;;;;;;;5.63;3.80;;;;;;;22.08;64.29;97680.78;5029177;28;20472;-74
2023/08/26 09:48:22;;;;;;;6.37;3.90;;;;;;;22.09;64.18;97683.22;5023816;28;20467;-72
2023/08/26 09:50:49;;;;;;;3.70;3.33;;;;;;;22.19;63.01;97673.25;5031106;28;20456;-72
2023/08/26 09:53:28;;;;;;;4.67;3.40;;;;;;;22.34;62.54;97678.66;5034316;28;20483;-72
2023/08/26 09:55:57;;;;;;;4.17;3.33;;;;;;;22.21;62.10;97673.78;5033211;28;21044;-72
2023/08/26 09:58:24;;;;;;;3.17;2.83;;;;;;;22.32;61.18;97659.66;5036929;28;20499;-72
2023/08/26 10:00:51;;;;;;;4.03;3.20;;;;;;;22.40;61.81;97661.78;5036502;28;21042;-72
2023/08/26 10:03:19;;;;;;;4.10;3.50;;;;;;;22.50;60.26;97660.88;5025769;28;20543;-74
2023/08/26 10:05:47;;;;;;;6.73;3.37;;;;;;;22.64;59.54;97648.06;5033448;28;20503;-75
2023/08/26 10:08:14;;;;;;;3.27;2.90;;;;;;;22.69;58.69;97652.72;5030746;28;20521;-75
2023/08/26 10:10:47;;;;;;;4.43;3.03;;;;;;;22.43;59.73;97643.81;5035091;28;20494;-73
2023/08/26 10:13:16;;;;;;;2.87;2.67;;;;;;;22.54;59.38;97652.84;5029334;28;20456;-74
2023/08/26 10:15:44;;;;;;;5.50;3.10;;;;;;;22.68;59.07;97651.91;5040155;28;20471;-75
2023/08/26 10:18:17;;;;;;;5.17;3.00;;;;;;;22.82;59.84;97652.06;5034933;28;20483;-73
2023/08/26 10:20:45;;;;;;;3.50;3.17;;;;;;;23.10;57.49;97653.16;5033922;28;20495;-73
2023/08/26 10:23:13;;;;;;;4.10;3.40;;;;;;;23.40;57.60;97644.53;5034037;28;20845;-73
2023/08/26 10:25:40;;;;;;;4.40;3.57;;;;;;;23.67;56.38;97646.72;5029697;28;20478;-73
2023/08/26 10:28:07;;;;;;;4.47;3.20;;;;;;;23.67;54.94;97648.66;5031358;28;20916;-73
2023/08/26 10:30:35;;;;;;;3.57;3.20;;;;;;;23.59;55.85;97655.66;5033584;28;21057;-72
2023/08/26 10:33:04;;;;;;;4.97;2.87;;;;;;;23.56;57.38;97655.44;5036621;28;20478;-72
2023/08/26 10:35:32;;;;;;;3.70;3.40;;;;;;;23.51;57.04;97655.47;5034201;28;20905;-75
2023/08/26 10:38:12;;;;;;;3.00;2.80;;;;;;;23.87;55.72;97631.78;5029929;28;20484;-74
2023/08/26 10:40:39;;;;;;;3.57;3.17;;;;;;;24.33;54.37;97648.56;5032548;28;20498;-74
2023/08/26 10:43:06;;;;;;;3.50;2.83;;;;;;;24.66;52.46;97641.09;5028124;28;20534;-74
2023/08/26 10:45:45;;;;;;;3.57;3.00;;;;;;;24.80;51.62;97641.13;5032177;28;20548;-74
2023/08/26 10:48:12;;;;;;;3.20;2.60;;;;;;;24.71;51.97;97654.00;5030329;28;20459;-73
2023/08/26 10:50:40;;;;;;;2.90;2.63;;;;;;;24.38;53.19;97661.47;5032337;28;20474;-75
2023/08/26 10:53:14;;;;;;;3.10;2.73;;;;;;;24.43;53.67;97661.38;5043418;28;20763;-78
2023/08/26 10:55:41;;;;;;;3.60;3.20;;;;;;;24.12;52.93;97659.06;5037910;28;20558;-71
2023/08/26 10:58:16;;;;;;;3.13;2.70;;;;;;;24.10;53.82;97661.31;5031146;28;20498;-71
2023/08/26 11:00:46;;;;;;;5.60;3.13;;;;;;;23.58;55.38;97664.25;5031662;28;20485;-72
2023/08/26 11:03:14;;;;;;;3.47;3.17;;;;;;;23.77;54.52;97659.56;5030444;28;20473;-71
2023/08/26 11:05:42;;;;;;;3.80;3.40;;;;;;;23.15;55.54;97661.38;5024712;28;20508;-73
2023/08/26 11:08:10;;;;;;;4.50;3.07;;;;;;;23.14;56.77;97654.22;5041209;28;20475;-72
2023/08/26 11:10:39;;;;;;;3.57;3.27;;;;;;;23.45;55.67;97644.47;5038382;28;20838;-73
2023/08/26 11:13:06;;;;;;;4.83;3.43;;;;;;;23.50;54.27;97645.53;5040424;28;20554;-72
2023/08/26 11:15:37;;;;;;;3.37;3.07;;;;;;;23.56;54.17;97634.16;5029785;28;20891;-73
2023/08/26 11:18:05;;;;;;;6.63;3.60;;;;;;;23.65;55.00;97631.56;5027404;28;20492;-74
2023/08/26 11:20:33;;;;;;;5.83;3.77;;;;;;;23.42;55.12;97634.00;5031695;28;20850;-73
2023/08/26 11:23:00;;;;;;;3.80;3.50;;;;;;;23.39;56.17;97629.06;5033366;28;20463;-73
2023/08/26 11:25:27;;;;;;;4.80;3.30;;;;;;;23.42;57.90;97627.66;5031120;28;20486;-75
2023/08/26 11:27:54;;;;;;;4.60;3.20;;;;;;;23.27;59.33;97641.66;5031920;28;20514;-74
2023/08/26 11:30:21;;;;;;;5.20;3.33;;;;;;;23.05;59.41;97631.16;5035124;28;20461;-73